createdAt,value
2022-12-26T00:02:23.108Z,102038.78
2022-12-26T00:07:22.019Z,102043.56
2022-12-26T00:12:20.706Z,102056.69
2022-12-26T00:17:20.894Z,102050.59
2022-12-26T00:22:19.870Z,102052.44
2022-12-26T00:27:18.723Z,102055.88
2022-12-26T00:32:18.381Z,102052.31
2022-12-26T00:37:18.548Z,102041.00
2022-12-26T00:42:17.400Z,102036.78
2022-12-26T00:47:16.377Z,102056.78
2022-12-26T00:52:15.205Z,102062.84
2022-12-26T00:57:15.355Z,102060.19
2022-12-26T01:02:28.076Z,102070.59
2022-12-26T01:07:26.984Z,102054.91
2022-12-26T01:12:27.576Z,102051.44
2022-12-26T01:17:27.288Z,102041.88
2022-12-26T01:22:26.800Z,102034.00
2022-12-26T01:27:27.731Z,102035.78
2022-12-26T01:32:28.231Z,102024.47
2022-12-26T01:37:27.088Z,102027.09
2022-12-26T01:42:28.246Z,102030.69
2022-12-26T01:47:41.595Z,102030.75
2022-12-26T01:52:46.437Z,102043.88
2022-12-26T01:57:55.935Z,102072.59
2022-12-26T02:03:13.161Z,102061.34
2022-12-26T02:08:15.884Z,102048.66
2022-12-26T02:13:18.335Z,102045.28
2022-12-26T02:18:17.216Z,102035.69
2022-12-26T02:24:02.927Z,102037.41
2022-12-26T02:29:42.689Z,102027.84
2022-12-26T02:34:52.215Z,102022.63
2022-12-26T02:40:07.920Z,102040.03
2022-12-26T02:45:32.058Z,102033.16
2022-12-26T02:51:05.607Z,102041.84
2022-12-26T02:56:29.363Z,102031.47
2022-12-26T03:01:52.000Z,102020.19
2022-12-26T03:07:15.898Z,102020.19
2022-12-26T03:12:50.849Z,102026.28
2022-12-26T03:17:53.407Z,102019.41
2022-12-26T03:22:59.776Z,102028.16
2022-12-26T03:27:58.704Z,102029.97
2022-12-26T03:32:58.603Z,102040.44
2022-12-26T03:38:04.173Z,102037.88
2022-12-26T03:43:29.602Z,102036.13
2022-12-26T03:48:51.300Z,102034.44
2022-12-26T03:54:14.394Z,102030.13
2022-12-26T03:59:34.026Z,102037.06
2022-12-26T04:04:52.872Z,102033.63
2022-12-26T04:10:15.878Z,102034.50
2022-12-26T04:15:41.595Z,102037.97
2022-12-26T04:20:49.920Z,102021.50
2022-12-26T04:26:15.661Z,102030.19
2022-12-26T04:31:39.905Z,102021.59
2022-12-26T04:37:05.856Z,102024.19
2022-12-26T04:42:25.232Z,102044.19
2022-12-26T04:47:24.284Z,102041.63
2022-12-26T04:52:23.071Z,102052.13
2022-12-26T04:57:23.409Z,102048.66
2022-12-26T05:02:39.558Z,102051.28
2022-12-26T05:07:56.577Z,102046.13
2022-12-26T05:12:57.099Z,102059.16
2022-12-26T05:18:13.622Z,102058.25
2022-12-26T05:23:37.259Z,102060.91
2022-12-26T05:28:43.598Z,102069.59
2022-12-26T05:33:59.914Z,102081.75
2022-12-26T05:38:59.106Z,102076.50
2022-12-26T05:43:59.588Z,102071.31
2022-12-26T05:48:58.421Z,102080.00
2022-12-26T05:53:57.393Z,102059.16
2022-12-26T05:58:57.593Z,102068.72
2022-12-26T06:04:00.290Z,102069.59
2022-12-26T06:08:59.523Z,102091.28
2022-12-26T06:13:58.917Z,102086.94
2022-12-26T06:18:59.038Z,102093.00
2022-12-26T06:23:57.824Z,102090.38
2022-12-26T06:28:56.647Z,102093.88
2022-12-26T06:34:01.462Z,102093.88
2022-12-26T06:39:01.260Z,102087.75
2022-12-26T06:44:00.177Z,102084.28
2022-12-26T06:49:00.502Z,102075.63
2022-12-26T06:54:11.975Z,102081.69
2022-12-26T06:59:12.824Z,102080.81
2022-12-26T07:04:14.469Z,102086.88
2022-12-26T07:09:17.002Z,102087.72
2022-12-26T07:14:18.450Z,102092.91
2022-12-26T07:19:18.731Z,102081.56
2022-12-26T07:24:21.094Z,102080.66
2022-12-26T07:29:20.300Z,102077.13
2022-12-26T07:34:20.684Z,102097.09
2022-12-26T07:39:19.919Z,102110.09
2022-12-26T07:44:20.252Z,102117.88
2022-12-26T07:49:20.444Z,102116.97
2022-12-26T07:54:22.005Z,102114.25
2022-12-26T07:59:20.866Z,102107.28
2022-12-26T08:04:21.634Z,102095.94
2022-12-26T08:09:22.019Z,102086.28
2022-12-26T08:14:23.741Z,102095.84
2022-12-26T08:19:25.931Z,102087.13
2022-12-26T08:24:28.117Z,102092.31
2022-12-26T08:29:27.312Z,102086.25
2022-12-26T08:34:33.798Z,102084.53
2022-12-26T08:39:34.862Z,102076.59
2022-12-26T08:44:36.619Z,102072.06
2022-12-26T08:49:40.654Z,102074.41
2022-12-26T08:54:39.749Z,102061.06
2022-12-26T08:59:38.585Z,102061.53
2022-12-26T09:04:38.869Z,102064.38
2022-12-26T09:09:37.633Z,102065.06
2022-12-26T09:14:36.936Z,102056.59
2022-12-26T09:19:35.962Z,102039.72
2022-12-26T09:24:37.529Z,102039.22
2022-12-26T09:29:39.264Z,102032.19
2022-12-26T09:34:38.599Z,102030.44
2022-12-26T09:39:38.771Z,102029.75
2022-12-26T09:44:49.345Z,102032.25
2022-12-26T09:49:55.187Z,102020.28
2022-12-26T09:54:59.996Z,102011.91
2022-12-26T10:00:17.014Z,102012.22
2022-12-26T10:05:22.185Z,102015.50
2022-12-26T10:10:31.391Z,101998.91
2022-12-26T10:15:45.489Z,101968.41
2022-12-26T10:20:55.610Z,101957.72
2022-12-26T10:26:02.402Z,101961.75
2022-12-26T10:31:09.200Z,101953.69
2022-12-26T10:36:17.816Z,101944.31
2022-12-26T10:41:29.936Z,101940.72
2022-12-26T10:46:47.402Z,101941.13
2022-12-26T10:51:46.827Z,101922.88
2022-12-26T10:56:51.001Z,101918.50
2022-12-26T11:01:51.045Z,101916.19
2022-12-26T11:06:54.984Z,101919.63
2022-12-26T11:11:57.810Z,101932.81
2022-12-26T11:16:58.831Z,101925.47
2022-12-26T11:22:21.276Z,101911.94
2022-12-26T11:27:28.095Z,101917.66
2022-12-26T11:32:30.029Z,101921.34
2022-12-26T11:37:32.700Z,101912.88
2022-12-26T11:42:32.840Z,101904.34
2022-12-26T11:47:32.221Z,101909.84
2022-12-26T11:52:38.708Z,101895.28
2022-12-26T11:57:39.354Z,101903.59
2022-12-26T12:02:42.610Z,101905.31
2022-12-26T12:07:52.378Z,101893.19
2022-12-26T12:12:58.695Z,101892.56
2022-12-26T12:18:09.190Z,101900.44
2022-12-26T12:23:25.845Z,101876.69
2022-12-26T12:28:49.804Z,101885.97
2022-12-26T12:34:02.940Z,101891.25
2022-12-26T12:39:07.993Z,101878.69
2022-12-26T12:44:15.009Z,101881.34
2022-12-26T12:49:27.048Z,101881.38
2022-12-26T12:55:03.243Z,101880.16
2022-12-26T13:00:14.395Z,101878.59
2022-12-26T13:05:35.866Z,101882.09
2022-12-26T13:10:39.039Z,101883.25
2022-12-26T13:15:44.906Z,101887.44
2022-12-26T13:20:47.939Z,101885.06
2022-12-26T13:25:53.508Z,101887.38
2022-12-26T13:30:56.928Z,101892.78
2022-12-26T13:36:01.843Z,101892.09
2022-12-26T13:41:25.009Z,101895.03
2022-12-26T13:46:56.566Z,101891.09
2022-12-26T13:52:00.215Z,101877.53
2022-12-26T13:57:29.488Z,101882.44
2022-12-26T14:03:20.505Z,101887.09
2022-12-26T14:08:33.337Z,101883.38
2022-12-26T14:13:52.576Z,101886.72
2022-12-26T14:18:58.845Z,101875.91
2022-12-26T14:24:11.830Z,101882.66
2022-12-26T14:29:20.974Z,101876.63
2022-12-26T14:34:31.612Z,101879.41
2022-12-26T14:39:41.181Z,101874.53
2022-12-26T14:44:44.491Z,101874.56
2022-12-26T14:49:44.359Z,101880.66
2022-12-26T14:54:51.142Z,101894.00
2022-12-26T15:00:15.866Z,101886.66
2022-12-26T15:05:22.818Z,101872.69
2022-12-26T15:10:59.163Z,101881.75
2022-12-26T15:16:28.918Z,101881.06
2022-12-26T15:21:57.373Z,101873.75
2022-12-26T15:27:21.450Z,101874.00
2022-12-26T15:32:30.660Z,101867.25
2022-12-26T15:37:52.331Z,101858.88
2022-12-26T15:43:12.713Z,101853.84
2022-12-26T15:48:26.535Z,101858.22
2022-12-26T15:53:38.649Z,101843.22
2022-12-26T15:59:05.714Z,101846.56
2022-12-26T16:04:20.295Z,101839.47
2022-12-26T16:09:37.322Z,101833.97
2022-12-26T16:14:39.292Z,101835.41
2022-12-26T16:19:41.027Z,101826.88
2022-12-26T16:24:43.252Z,101829.38
2022-12-26T16:29:52.971Z,101832.06
2022-12-26T16:34:54.283Z,101834.63
2022-12-26T16:40:25.493Z,101841.00
2022-12-26T16:45:25.536Z,101832.97
2022-12-26T16:50:28.707Z,101825.81
2022-12-26T16:55:37.878Z,101817.53
2022-12-26T17:00:37.470Z,101829.69
2022-12-26T17:05:39.231Z,101819.56
2022-12-26T17:10:52.400Z,101810.47
2022-12-26T17:16:07.427Z,101816.06
2022-12-26T17:21:30.065Z,101812.78
2022-12-26T17:26:31.840Z,101816.53
2022-12-26T17:31:35.999Z,101819.38
2022-12-26T17:41:57.865Z,101809.72
2022-12-26T17:46:56.717Z,101823.94
2022-12-26T17:52:01.586Z,101829.59
2022-12-26T17:57:02.078Z,101818.22
2022-12-26T18:02:01.031Z,101821.19
2022-12-26T18:06:59.888Z,101808.09
2022-12-26T18:11:58.728Z,101807.31
2022-12-26T18:17:00.395Z,101802.13
2022-12-26T18:21:59.105Z,101798.63
2022-12-26T18:26:58.571Z,101790.88
2022-12-26T18:31:58.906Z,101804.94
2022-12-26T18:36:57.693Z,101792.88
2022-12-26T18:41:56.457Z,101788.56
2022-12-26T18:46:55.231Z,101767.75
2022-12-26T18:51:55.420Z,101766.34
2022-12-26T18:56:54.148Z,101763.00
2022-12-26T19:01:53.012Z,101767.56
2022-12-26T19:06:53.459Z,101752.19
2022-12-26T19:11:53.595Z,101752.69
2022-12-26T19:16:52.400Z,101752.19
2022-12-26T19:21:51.306Z,101752.31
2022-12-26T19:26:50.087Z,101745.66
2022-12-26T19:31:50.256Z,101749.22
2022-12-26T19:36:49.009Z,101749.41
2022-12-26T19:41:47.829Z,101749.00
2022-12-26T19:46:47.043Z,101744.63
2022-12-26T19:51:47.645Z,101755.16
2022-12-26T19:56:46.505Z,101749.94
2022-12-26T20:01:45.483Z,101746.53
2022-12-26T20:06:44.415Z,101757.06
2022-12-26T20:11:49.441Z,101764.13
2022-12-26T20:17:08.810Z,101758.91
2022-12-26T20:22:09.513Z,101746.56
2022-12-26T20:27:10.304Z,101753.41
2022-12-26T20:32:12.955Z,101755.94
2022-12-26T20:37:14.008Z,101755.09
2022-12-26T20:42:17.849Z,101758.47
2022-12-26T20:47:18.738Z,101755.81
2022-12-26T20:52:19.497Z,101760.97
2022-12-26T20:57:21.015Z,101759.13
2022-12-26T21:02:20.684Z,101760.81
2022-12-26T21:07:21.437Z,101758.22
2022-12-26T21:12:22.854Z,101756.53
2022-12-26T21:17:21.977Z,101759.22
2022-12-26T21:22:24.782Z,101761.09
2022-12-26T21:27:30.435Z,101761.22
2022-12-26T21:32:31.035Z,101730.88
2022-12-26T21:37:51.625Z,101724.75
2022-12-26T21:42:53.118Z,101723.03
2022-12-26T21:47:52.928Z,101722.16
2022-12-26T21:52:53.442Z,101716.13
2022-12-26T21:57:54.597Z,101712.75
2022-12-26T22:03:10.662Z,101704.91
2022-12-26T22:08:12.419Z,101689.28
2022-12-26T22:13:13.514Z,101684.09
2022-12-26T22:18:13.484Z,101669.28
2022-12-26T22:23:13.762Z,101669.28
2022-12-26T22:28:20.176Z,101666.66
2022-12-26T22:33:21.950Z,101664.91
2022-12-26T22:38:22.340Z,101656.31
2022-12-26T22:43:22.577Z,101647.91
2022-12-26T22:48:22.381Z,101650.69
2022-12-26T22:53:24.526Z,101646.47
2022-12-26T22:58:27.862Z,101653.56
2022-12-26T23:03:28.195Z,101656.38
2022-12-26T23:08:29.992Z,101649.56
2022-12-26T23:13:32.653Z,101661.78
2022-12-26T23:18:59.049Z,101651.53
2022-12-26T23:23:58.174Z,101649.06
2022-12-26T23:29:15.549Z,101638.72
2022-12-26T23:34:14.498Z,101642.31
2022-12-26T23:39:13.632Z,101635.41
2022-12-26T23:44:13.942Z,101632.03
2022-12-26T23:49:14.203Z,101626.81
2022-12-26T23:54:13.074Z,101624.28
2022-12-26T23:59:13.244Z,101621.72
